createdAt,value
2019-01-24T00:00:01.660Z,20.43
2019-01-24T00:01:11.225Z,20.36
2019-01-24T00:02:20.740Z,20.39
2019-01-24T00:03:30.546Z,20.38
2019-01-24T00:04:40.046Z,20.32
2019-01-24T00:05:49.044Z,20.31
2019-01-24T00:06:58.813Z,20.35
2019-01-24T00:08:08.045Z,20.41
2019-01-24T00:09:17.076Z,20.38
2019-01-24T00:10:26.097Z,20.29
2019-01-24T00:11:35.424Z,20.33
2019-01-24T00:12:44.424Z,20.31
2019-01-24T00:13:53.751Z,20.31
2019-01-24T00:15:02.813Z,20.28
2019-01-24T00:16:12.611Z,20.23
2019-01-24T00:17:22.492Z,20.14
2019-01-24T00:18:32.188Z,20.18
2019-01-24T00:19:41.555Z,20.17
2019-01-24T00:20:50.532Z,20.21
2019-01-24T00:21:59.815Z,20.18
2019-01-24T00:23:08.868Z,20.26
2019-01-24T00:24:18.131Z,20.18
2019-01-24T00:25:27.498Z,20.21
2019-01-24T00:26:36.613Z,20.23
2019-01-24T00:27:46.139Z,20.2
2019-01-24T00:28:55.377Z,20.17
2019-01-24T00:30:04.392Z,20.13
2019-01-24T00:31:14.152Z,20.13
2019-01-24T00:32:23.169Z,20.16
2019-01-24T00:33:32.455Z,20.14
2019-01-24T00:34:41.711Z,20.13
2019-01-24T00:35:51.218Z,20.11
2019-01-24T00:37:00.740Z,20.1
2019-01-24T00:38:10.071Z,20.11
2019-01-24T00:39:18.877Z,20.08
2019-01-24T00:40:28.407Z,20.05
2019-01-24T00:41:37.970Z,20.1
2019-01-24T00:42:47.529Z,19.98
2019-01-24T00:43:56.313Z,19.98
2019-01-24T00:45:05.834Z,19.98
2019-01-24T00:46:15.416Z,20.01
2019-01-24T00:47:24.541Z,19.96
2019-01-24T00:48:33.820Z,19.99
2019-01-24T00:49:43.110Z,19.95
2019-01-24T00:50:52.606Z,20.02
2019-01-24T00:52:01.587Z,19.99
2019-01-24T00:53:10.886Z,20.01
2019-01-24T00:54:20.419Z,20.02
2019-01-24T00:55:29.460Z,19.96
2019-01-24T00:56:39.242Z,19.95
2019-01-24T00:57:48.041Z,19.91
2019-01-24T00:58:57.306Z,19.86
2019-01-24T01:00:06.116Z,19.96
2019-01-24T01:01:15.454Z,19.86
2019-01-24T01:02:25.502Z,19.86
2019-01-24T01:03:35.118Z,19.86
2019-01-24T01:04:44.395Z,19.88
2019-01-24T01:05:53.393Z,19.84
2019-01-24T01:07:02.364Z,19.83
2019-01-24T01:08:11.398Z,19.86
2019-01-24T01:09:20.895Z,19.81
2019-01-24T01:10:29.953Z,19.83
2019-01-24T01:11:39.759Z,19.84
2019-01-24T01:12:48.779Z,19.69
2019-01-24T01:13:57.855Z,19.73
2019-01-24T01:15:07.036Z,19.78
2019-01-24T01:16:16.155Z,19.73
2019-01-24T01:17:25.655Z,19.81
2019-01-24T01:18:34.376Z,19.73
2019-01-24T01:19:43.902Z,19.69
2019-01-24T01:20:53.427Z,19.77
2019-01-24T01:22:02.512Z,19.69
2019-01-24T01:23:12.068Z,19.73
2019-01-24T01:24:21.567Z,19.63
2019-01-24T01:25:31.162Z,19.65
2019-01-24T01:26:40.178Z,19.61
2019-01-24T01:27:49.966Z,19.65
2019-01-24T01:28:59.461Z,19.65
2019-01-24T01:30:09.258Z,19.68
2019-01-24T01:31:18.794Z,19.56
2019-01-24T01:32:28.299Z,19.73
2019-01-24T01:33:37.282Z,19.55
2019-01-24T01:34:46.023Z,19.56
2019-01-24T01:35:55.768Z,19.62
2019-01-24T01:37:04.517Z,19.59
2019-01-24T01:38:14.026Z,19.65
2019-01-24T01:39:24.614Z,19.59
2019-01-24T01:40:34.163Z,19.56
2019-01-24T01:41:43.692Z,19.59
2019-01-24T01:42:52.969Z,19.55
2019-01-24T01:44:02.506Z,19.58
2019-01-24T01:45:11.826Z,19.48
2019-01-24T01:46:21.099Z,19.51
2019-01-24T01:47:30.921Z,19.5
2019-01-24T01:48:39.694Z,19.55
2019-01-24T01:49:48.903Z,19.47
2019-01-24T01:50:57.923Z,19.51
2019-01-24T01:52:07.399Z,19.5
2019-01-24T01:53:17.001Z,19.47
2019-01-24T01:54:26.313Z,19.5
2019-01-24T01:55:35.883Z,19.4
2019-01-24T01:56:45.123Z,19.46
2019-01-24T01:57:54.148Z,19.47
2019-01-24T01:59:03.377Z,19.4
2019-01-24T02:00:12.635Z,19.43
2019-01-24T02:01:21.675Z,19.46
2019-01-24T02:02:31.175Z,19.51
2019-01-24T02:03:40.343Z,19.43
2019-01-24T02:04:49.830Z,19.47
2019-01-24T02:05:59.122Z,19.47
2019-01-24T02:07:08.409Z,19.39
2019-01-24T02:08:17.699Z,19.36
2019-01-24T02:09:27.013Z,19.43
2019-01-24T02:10:36.034Z,19.43
2019-01-24T02:11:45.315Z,19.36
2019-01-24T02:12:54.587Z,19.47
2019-01-24T02:14:03.851Z,19.43
2019-01-24T02:15:13.002Z,19.37
2019-01-24T02:16:22.038Z,19.39
2019-01-24T02:17:31.350Z,19.37
2019-01-24T02:18:40.107Z,19.39
2019-01-24T02:19:49.910Z,19.37
2019-01-24T02:20:58.919Z,19.29
2019-01-24T02:22:07.929Z,19.36
2019-01-24T02:23:17.458Z,19.31
2019-01-24T02:24:27.247Z,19.32
2019-01-24T02:25:36.593Z,19.32
2019-01-24T02:26:45.901Z,19.43
2019-01-24T02:27:55.159Z,19.32
2019-01-24T02:29:04.492Z,19.37
2019-01-24T02:30:13.788Z,19.32
2019-01-24T02:31:22.855Z,19.32
2019-01-24T02:32:32.687Z,19.37
2019-01-24T02:33:42.222Z,19.28
2019-01-24T02:34:54.657Z,19.31
2019-01-24T02:36:03.632Z,19.25
2019-01-24T02:37:13.198Z,19.28
2019-01-24T02:38:23.034Z,19.25
2019-01-24T02:39:33.088Z,19.31
2019-01-24T02:40:42.136Z,19.26
2019-01-24T02:41:51.638Z,19.26
2019-01-24T02:43:00.976Z,19.28
2019-01-24T02:44:10.501Z,19.23
2019-01-24T02:45:20.036Z,19.21
2019-01-24T02:46:29.604Z,19.22
2019-01-24T02:47:39.147Z,19.28
2019-01-24T02:48:48.191Z,19.28
2019-01-24T02:49:57.419Z,19.16
2019-01-24T02:51:06.462Z,19.1
2019-01-24T02:52:16.262Z,19.18
2019-01-24T02:53:26.095Z,19.22
2019-01-24T02:54:35.164Z,19.16
2019-01-24T02:55:44.143Z,19.11
2019-01-24T02:56:53.436Z,19.13
2019-01-24T02:58:02.731Z,19.08
2019-01-24T02:59:12.731Z,19.11
2019-01-24T03:00:21.994Z,19.08
2019-01-24T03:01:31.482Z,19.11
2019-01-24T03:02:40.743Z,19.07
2019-01-24T03:03:50.015Z,19.13
2019-01-24T03:05:01.722Z,19.08
2019-01-24T03:06:10.736Z,19.08
2019-01-24T03:07:19.751Z,19.04
2019-01-24T03:08:28.768Z,19.1
2019-01-24T03:09:38.295Z,19.1
2019-01-24T03:10:47.563Z,19.04
2019-01-24T03:11:57.094Z,18.99
2019-01-24T03:13:06.382Z,19.07
2019-01-24T03:14:15.657Z,19.1
2019-01-24T03:15:25.202Z,19.04
2019-01-24T03:16:34.720Z,19.08
2019-01-24T03:17:43.989Z,19.02
2019-01-24T03:18:53.826Z,18.99
2019-01-24T03:20:03.595Z,19.07
2019-01-24T03:21:13.100Z,19
2019-01-24T03:22:21.902Z,18.99
2019-01-24T03:23:31.522Z,19
2019-01-24T03:24:41.034Z,18.99
2019-01-24T03:25:50.082Z,18.98
2019-01-24T03:26:59.444Z,19.04
2019-01-24T03:28:08.439Z,19.06
2019-01-24T03:29:17.734Z,18.99
2019-01-24T03:30:27.925Z,19.02
2019-01-24T03:31:37.797Z,19
2019-01-24T03:32:47.584Z,18.95
2019-01-24T03:33:57.141Z,18.98
2019-01-24T03:35:09.120Z,18.98
2019-01-24T03:36:18.632Z,18.92
2019-01-24T03:37:28.258Z,18.94
2019-01-24T03:38:37.844Z,18.99
2019-01-24T03:39:46.866Z,18.98
2019-01-24T03:40:56.932Z,18.94
2019-01-24T03:42:06.468Z,18.94
2019-01-24T03:43:16.054Z,18.94
2019-01-24T03:44:25.036Z,18.94
2019-01-24T03:45:34.537Z,18.9
2019-01-24T03:46:43.314Z,18.91
2019-01-24T03:47:52.118Z,18.9
2019-01-24T03:49:01.661Z,18.92
2019-01-24T03:50:10.664Z,18.84
2019-01-24T03:51:19.936Z,18.92
2019-01-24T03:52:29.679Z,18.8
2019-01-24T03:53:39.402Z,18.88
2019-01-24T03:54:48.394Z,18.87
2019-01-24T03:55:57.389Z,18.88
2019-01-24T03:57:06.633Z,18.81
2019-01-24T03:58:16.165Z,18.82
2019-01-24T03:59:24.970Z,18.85
2019-01-24T04:00:34.543Z,18.8
2019-01-24T04:01:43.796Z,18.88
2019-01-24T04:02:53.321Z,18.92
2019-01-24T04:04:02.852Z,18.85
2019-01-24T04:05:16.472Z,18.84
2019-01-24T04:06:25.698Z,18.85
2019-01-24T04:07:35.202Z,18.84
2019-01-24T04:08:44.179Z,18.87
2019-01-24T04:09:53.170Z,18.88
2019-01-24T04:11:02.383Z,18.81
2019-01-24T04:12:13.093Z,18.87
2019-01-24T04:13:22.588Z,18.82
2019-01-24T04:14:32.621Z,18.84
2019-01-24T04:15:41.709Z,18.85
2019-01-24T04:16:50.726Z,18.82
2019-01-24T04:18:00.049Z,18.81
2019-01-24T04:19:09.353Z,18.78
2019-01-24T04:20:19.136Z,18.78
2019-01-24T04:21:28.133Z,18.78
2019-01-24T04:22:37.703Z,18.75
2019-01-24T04:23:46.711Z,18.73
2019-01-24T04:24:56.351Z,18.78
2019-01-24T04:26:05.866Z,18.81
2019-01-24T04:27:15.412Z,18.78
2019-01-24T04:28:24.940Z,18.75
2019-01-24T04:29:34.690Z,18.7
2019-01-24T04:30:43.951Z,18.73
2019-01-24T04:31:52.691Z,18.7
2019-01-24T04:33:01.922Z,18.78
2019-01-24T04:34:11.457Z,18.75
2019-01-24T04:35:25.008Z,18.69
2019-01-24T04:36:34.817Z,18.7
2019-01-24T04:37:43.884Z,18.73
2019-01-24T04:38:52.870Z,18.75
2019-01-24T04:40:01.865Z,18.7
2019-01-24T04:41:11.158Z,18.73
2019-01-24T04:42:20.969Z,18.66
2019-01-24T04:43:30.270Z,18.62
2019-01-24T04:44:40.350Z,18.73
2019-01-24T04:45:50.385Z,18.67
2019-01-24T04:46:59.112Z,18.62
2019-01-24T04:48:08.371Z,18.62
2019-01-24T04:49:17.401Z,18.6
2019-01-24T04:50:27.145Z,18.63
2019-01-24T04:51:35.877Z,18.65
2019-01-24T04:52:45.373Z,18.62
2019-01-24T04:53:54.948Z,18.51
2019-01-24T04:55:04.426Z,18.65
2019-01-24T04:56:14.406Z,18.57
2019-01-24T04:57:24.101Z,18.55
2019-01-24T04:58:34.096Z,18.54
2019-01-24T04:59:43.943Z,18.52
2019-01-24T05:00:52.679Z,18.5
2019-01-24T05:02:02.164Z,18.55
2019-01-24T05:03:11.986Z,18.54
2019-01-24T05:04:21.254Z,18.52
2019-01-24T05:05:32.961Z,18.5
2019-01-24T05:06:41.693Z,18.51
2019-01-24T05:07:50.685Z,18.52
2019-01-24T05:09:00.185Z,18.54
2019-01-24T05:10:09.460Z,18.51
2019-01-24T05:11:19.007Z,18.47
2019-01-24T05:12:28.316Z,18.52
2019-01-24T05:13:37.301Z,18.5
2019-01-24T05:14:47.363Z,18.47
2019-01-24T05:15:56.867Z,18.47
2019-01-24T05:17:06.842Z,18.48
2019-01-24T05:18:16.128Z,18.48
2019-01-24T05:19:25.685Z,18.42
2019-01-24T05:20:35.155Z,18.45
2019-01-24T05:21:44.444Z,18.39
2019-01-24T05:22:53.690Z,18.5
2019-01-24T05:24:03.215Z,18.42
2019-01-24T05:25:12.457Z,18.51
2019-01-24T05:26:21.960Z,18.47
2019-01-24T05:27:32.992Z,18.48
2019-01-24T05:28:42.452Z,18.51
2019-01-24T05:29:52.203Z,18.39
2019-01-24T05:31:01.461Z,18.47
2019-01-24T05:32:10.970Z,18.45
2019-01-24T05:33:20.470Z,18.48
2019-01-24T05:34:30.239Z,18.48
2019-01-24T05:35:39.534Z,18.5
2019-01-24T05:36:49.024Z,18.44
2019-01-24T05:37:58.361Z,18.47
2019-01-24T05:39:07.363Z,18.42
2019-01-24T05:40:16.085Z,18.44
2019-01-24T05:41:25.646Z,18.44
2019-01-24T05:42:35.106Z,18.42
2019-01-24T05:43:44.117Z,18.47
2019-01-24T05:44:53.369Z,18.44
2019-01-24T05:46:02.890Z,18.42
2019-01-24T05:47:12.380Z,18.45
2019-01-24T05:48:22.122Z,18.42
2019-01-24T05:49:31.640Z,18.44
2019-01-24T05:50:40.873Z,18.42
2019-01-24T05:51:49.869Z,18.44
2019-01-24T05:52:58.890Z,18.47
2019-01-24T05:54:08.632Z,18.44
2019-01-24T05:55:18.333Z,18.5
2019-01-24T05:56:27.851Z,18.48
2019-01-24T05:57:36.907Z,18.51
2019-01-24T05:58:46.473Z,18.44
2019-01-24T05:59:55.461Z,18.42
2019-01-24T06:01:04.827Z,18.42
2019-01-24T06:02:14.324Z,18.45
2019-01-24T06:03:24.379Z,18.42
2019-01-24T06:04:33.379Z,18.37
2019-01-24T06:05:46.318Z,18.36
2019-01-24T06:06:55.968Z,18.39
2019-01-24T06:08:05.606Z,18.42
2019-01-24T06:09:15.109Z,18.48
2019-01-24T06:10:24.640Z,18.45
2019-01-24T06:11:33.966Z,18.45
2019-01-24T06:12:43.515Z,18.51
2019-01-24T06:13:52.531Z,18.45
2019-01-24T06:15:02.326Z,18.55
2019-01-24T06:16:11.616Z,18.45
2019-01-24T06:17:21.118Z,18.52
2019-01-24T06:18:30.922Z,18.42
2019-01-24T06:19:40.476Z,18.48
2019-01-24T06:20:49.975Z,18.45
2019-01-24T06:21:59.527Z,18.5
2019-01-24T06:23:08.854Z,18.48
2019-01-24T06:24:18.202Z,18.44
2019-01-24T06:25:27.766Z,18.48
2019-01-24T06:26:37.257Z,18.44
2019-01-24T06:27:46.768Z,18.42
2019-01-24T06:28:55.492Z,18.44
2019-01-24T06:30:07.934Z,18.33
2019-01-24T06:31:17.433Z,18.41
2019-01-24T06:32:26.916Z,18.3
2019-01-24T06:33:35.707Z,18.39
2019-01-24T06:34:45.194Z,18.36
2019-01-24T06:35:54.940Z,18.39
2019-01-24T06:37:04.443Z,18.23
2019-01-24T06:38:13.653Z,18.29
2019-01-24T06:39:23.114Z,18.25
2019-01-24T06:40:32.580Z,18.26
2019-01-24T06:41:41.576Z,18.29
2019-01-24T06:42:50.817Z,18.26
2019-01-24T06:44:00.351Z,18.33
2019-01-24T06:45:09.623Z,18.21
2019-01-24T06:46:18.703Z,18.17
2019-01-24T06:47:27.690Z,18.18
2019-01-24T06:48:37.209Z,18.2
2019-01-24T06:49:46.687Z,18.2
2019-01-24T06:50:55.449Z,18.07
2019-01-24T06:52:04.717Z,18.1
2019-01-24T06:53:14.219Z,18.08
2019-01-24T06:54:24.637Z,18.05
2019-01-24T06:55:34.158Z,18.02
2019-01-24T06:56:43.150Z,18.02
2019-01-24T06:57:52.609Z,18.05
2019-01-24T06:59:01.327Z,18.1
2019-01-24T07:00:10.322Z,18.02
2019-01-24T07:01:19.602Z,18.05
2019-01-24T07:02:29.146Z,18.1
2019-01-24T07:03:38.391Z,18.21
2019-01-24T07:04:47.418Z,18.21
2019-01-24T07:05:59.832Z,18.41
2019-01-24T07:07:08.834Z,18.48
2019-01-24T07:08:17.812Z,18.58
2019-01-24T07:09:27.034Z,18.65
2019-01-24T07:10:36.275Z,18.75
2019-01-24T07:11:45.514Z,18.84
2019-01-24T07:12:54.235Z,18.84
2019-01-24T07:14:03.480Z,18.98
2019-01-24T07:15:12.476Z,19.06
2019-01-24T07:16:22.252Z,19.22
2019-01-24T07:17:31.700Z,19.31
2019-01-24T07:18:40.954Z,19.37
2019-01-24T07:19:50.453Z,19.44
2019-01-24T07:20:59.441Z,19.51
2019-01-24T07:22:08.949Z,19.58
2019-01-24T07:23:18.699Z,19.63
2019-01-24T07:24:28.238Z,19.73
2019-01-24T07:25:37.729Z,19.66
2019-01-24T07:26:47.018Z,19.78
2019-01-24T07:27:55.771Z,19.76
2019-01-24T07:29:04.749Z,19.77
2019-01-24T07:30:14.226Z,19.86
2019-01-24T07:31:23.207Z,19.92
2019-01-24T07:32:32.262Z,19.95
2019-01-24T07:33:41.983Z,19.96
2019-01-24T07:34:51.266Z,20.02
2019-01-24T07:36:06.875Z,19.98
2019-01-24T07:37:16.153Z,19.98
2019-01-24T07:38:25.193Z,20.08
2019-01-24T07:39:34.446Z,20.08
2019-01-24T07:40:43.971Z,20.14
2019-01-24T07:41:52.968Z,20.14
2019-01-24T07:43:01.984Z,20.17
2019-01-24T07:44:11.313Z,20.24
2019-01-24T07:45:20.098Z,20.26
2019-01-24T07:46:29.381Z,20.38
2019-01-24T07:47:38.654Z,20.35
2019-01-24T07:48:47.921Z,20.32
2019-01-24T07:49:57.443Z,20.47
2019-01-24T07:51:06.805Z,20.47
2019-01-24T07:52:16.012Z,20.47
2019-01-24T07:53:25.081Z,20.55
2019-01-24T07:54:34.656Z,20.66
2019-01-24T07:55:44.396Z,20.69
2019-01-24T07:56:53.401Z,20.67
2019-01-24T07:58:02.688Z,20.7
2019-01-24T07:59:12.411Z,20.79
2019-01-24T08:00:22.199Z,20.82
2019-01-24T08:01:31.226Z,20.79
2019-01-24T08:02:40.488Z,20.84
2019-01-24T08:03:49.722Z,20.92
2019-01-24T08:04:59.190Z,20.94
2019-01-24T08:06:14.473Z,20.98
2019-01-24T08:07:23.476Z,20.94
2019-01-24T08:08:32.720Z,20.98
2019-01-24T08:09:41.734Z,21.03
2019-01-24T08:10:51.226Z,21.06
2019-01-24T08:12:00.735Z,21.01
2019-01-24T08:13:10.013Z,21.03
2019-01-24T08:14:19.314Z,21.07
2019-01-24T08:15:29.217Z,21.07
2019-01-24T08:16:38.854Z,21.01
2019-01-24T08:17:48.355Z,20.98
2019-01-24T08:18:58.349Z,21.07
2019-01-24T08:20:07.588Z,20.99
2019-01-24T08:21:16.594Z,20.94
2019-01-24T08:22:25.851Z,21.01
2019-01-24T08:23:35.426Z,20.95
2019-01-24T08:24:44.704Z,20.97
2019-01-24T08:25:54.212Z,20.97
2019-01-24T08:27:03.245Z,20.94
2019-01-24T08:28:12.938Z,20.85
2019-01-24T08:29:22.242Z,20.84
2019-01-24T08:30:31.509Z,20.82
2019-01-24T08:31:40.828Z,20.8
2019-01-24T08:32:50.077Z,20.73
2019-01-24T08:33:59.355Z,20.85
2019-01-24T08:35:08.619Z,20.74
2019-01-24T08:36:20.549Z,20.76
2019-01-24T08:37:30.042Z,20.82
2019-01-24T08:38:39.066Z,20.7
2019-01-24T08:39:48.390Z,20.67
2019-01-24T08:40:58.189Z,20.72
2019-01-24T08:42:07.213Z,20.69
2019-01-24T08:43:16.194Z,20.73
2019-01-24T08:44:25.433Z,20.69
2019-01-24T08:45:34.461Z,20.69
2019-01-24T08:46:43.788Z,20.64
2019-01-24T08:47:53.310Z,20.58
2019-01-24T08:49:02.082Z,20.55
2019-01-24T08:50:12.131Z,20.54
2019-01-24T08:51:21.641Z,20.57
2019-01-24T08:52:30.682Z,20.54
2019-01-24T08:53:39.927Z,20.48
2019-01-24T08:54:49.462Z,20.52
2019-01-24T08:55:58.740Z,20.51
2019-01-24T08:57:08.256Z,20.42
2019-01-24T08:58:17.219Z,20.43
2019-01-24T08:59:32.127Z,20.41
2019-01-24T09:00:41.159Z,20.38
2019-01-24T09:01:50.689Z,20.41
2019-01-24T09:03:00.186Z,20.38
2019-01-24T09:04:09.735Z,20.41
2019-01-24T09:05:18.953Z,20.42
2019-01-24T09:06:27.727Z,20.52
2019-01-24T09:07:37.231Z,20.42
2019-01-24T09:08:46.460Z,20.54
2019-01-24T09:09:55.726Z,20.43
2019-01-24T09:11:06.063Z,20.5
2019-01-24T09:12:15.320Z,20.58
2019-01-24T09:13:24.630Z,20.57
2019-01-24T09:14:33.937Z,20.66
2019-01-24T09:15:43.235Z,20.67
2019-01-24T09:16:52.953Z,20.73
2019-01-24T09:18:02.233Z,20.73
2019-01-24T09:19:11.714Z,20.67
2019-01-24T09:20:21.442Z,20.69
2019-01-24T09:21:30.681Z,20.79
2019-01-24T09:22:40.187Z,20.82
2019-01-24T09:23:49.475Z,20.82
2019-01-24T09:24:58.722Z,20.87
2019-01-24T09:26:08.177Z,20.91
2019-01-24T09:27:17.503Z,20.85
2019-01-24T09:28:27.031Z,20.92
2019-01-24T09:29:36.271Z,20.95
2019-01-24T09:30:45.791Z,20.98
2019-01-24T09:31:55.305Z,20.94
2019-01-24T09:33:05.102Z,20.95
2019-01-24T09:34:14.597Z,20.92
2019-01-24T09:35:23.575Z,20.92
2019-01-24T09:36:33.943Z,20.97
2019-01-24T09:37:43.183Z,20.91
2019-01-24T09:38:52.665Z,20.98
2019-01-24T09:40:01.919Z,20.94
2019-01-24T09:41:11.417Z,21.03
2019-01-24T09:42:21.175Z,20.91
2019-01-24T09:43:30.938Z,21.01
2019-01-24T09:44:40.674Z,20.91
2019-01-24T09:45:49.970Z,20.92
2019-01-24T09:46:58.960Z,20.95
2019-01-24T09:48:08.452Z,20.91
2019-01-24T09:49:17.703Z,20.84
2019-01-24T09:50:27.200Z,20.91
2019-01-24T09:51:36.869Z,20.88
2019-01-24T09:52:46.171Z,20.85
2019-01-24T09:53:55.709Z,20.82
2019-01-24T09:55:06.039Z,20.77
2019-01-24T09:56:15.083Z,20.77
2019-01-24T09:57:24.075Z,20.87
2019-01-24T09:58:33.663Z,20.82
2019-01-24T09:59:42.934Z,20.79
2019-01-24T10:00:52.507Z,20.69
2019-01-24T10:02:02.036Z,20.72
2019-01-24T10:03:11.593Z,20.72
2019-01-24T10:04:20.848Z,20.69
2019-01-24T10:05:30.896Z,20.72
2019-01-24T10:06:41.168Z,20.69
2019-01-24T10:07:50.705Z,20.72
2019-01-24T10:09:00.197Z,20.66
2019-01-24T10:10:09.422Z,20.67
2019-01-24T10:11:25.593Z,20.72
2019-01-24T10:12:35.413Z,20.66
2019-01-24T10:13:44.443Z,20.66
2019-01-24T10:14:54.243Z,20.67
2019-01-24T10:16:03.263Z,20.62
2019-01-24T10:17:12.789Z,20.62
2019-01-24T10:18:25.967Z,20.57
2019-01-24T10:19:35.250Z,20.57
2019-01-24T10:20:44.544Z,20.59
2019-01-24T10:21:53.859Z,20.55
2019-01-24T10:23:03.147Z,20.52
2019-01-24T10:24:12.147Z,20.54
2019-01-24T10:25:21.405Z,20.66
2019-01-24T10:26:30.660Z,20.55
2019-01-24T10:27:39.963Z,20.58
2019-01-24T10:28:49.223Z,20.55
2019-01-24T10:29:59.026Z,20.61
2019-01-24T10:31:08.267Z,20.64
2019-01-24T10:32:17.016Z,20.67
2019-01-24T10:33:26.995Z,20.7
2019-01-24T10:34:36.501Z,20.72
2019-01-24T10:35:45.743Z,20.67
2019-01-24T10:36:55.244Z,20.79
2019-01-24T10:38:04.509Z,20.66
2019-01-24T10:39:13.768Z,20.77
2019-01-24T10:40:23.551Z,20.79
2019-01-24T10:41:34.749Z,20.73
2019-01-24T10:42:44.285Z,20.82
2019-01-24T10:43:53.306Z,20.89
2019-01-24T10:45:02.828Z,20.94
2019-01-24T10:46:12.396Z,20.94
2019-01-24T10:47:21.663Z,20.95
2019-01-24T10:48:30.924Z,20.95
2019-01-24T10:49:40.196Z,20.99
2019-01-24T10:50:49.724Z,20.97
2019-01-24T10:51:59.246Z,20.99
2019-01-24T10:53:08.787Z,21.03
2019-01-24T10:54:18.031Z,20.98
2019-01-24T10:55:27.327Z,20.99
2019-01-24T10:56:37.496Z,21.1
2019-01-24T10:57:46.282Z,21.03
2019-01-24T10:58:55.831Z,21.06
2019-01-24T11:00:05.146Z,21.06
2019-01-24T11:01:14.421Z,21.07
2019-01-24T11:02:23.709Z,21.06
2019-01-24T11:03:32.706Z,21.03
2019-01-24T11:04:42.285Z,20.98
2019-01-24T11:05:51.310Z,21.01
2019-01-24T11:07:00.642Z,21.03
2019-01-24T11:08:10.225Z,20.99
2019-01-24T11:09:19.757Z,20.99
2019-01-24T11:10:29.531Z,20.91
2019-01-24T11:11:39.330Z,20.99
2019-01-24T11:12:48.597Z,20.94
2019-01-24T11:13:58.165Z,20.92
2019-01-24T11:15:07.640Z,20.98
2019-01-24T11:16:16.669Z,20.94
2019-01-24T11:17:25.951Z,20.91
2019-01-24T11:18:35.489Z,20.94
2019-01-24T11:19:44.552Z,20.94
2019-01-24T11:20:54.071Z,20.89
2019-01-24T11:22:03.098Z,20.85
2019-01-24T11:23:12.421Z,20.84
2019-01-24T11:24:21.704Z,20.88
2019-01-24T11:25:30.457Z,20.74
2019-01-24T11:26:39.980Z,20.8
2019-01-24T11:27:49.229Z,20.85
2019-01-24T11:28:58.295Z,20.85
2019-01-24T11:30:08.056Z,20.66
2019-01-24T11:31:17.085Z,20.74
2019-01-24T11:32:26.886Z,20.72
2019-01-24T11:33:36.238Z,20.69
2019-01-24T11:34:45.515Z,20.66
2019-01-24T11:35:55.078Z,20.74
2019-01-24T11:37:04.154Z,20.7
2019-01-24T11:38:13.447Z,20.72
2019-01-24T11:39:22.718Z,20.72
2019-01-24T11:40:31.785Z,20.7
2019-01-24T11:41:41.078Z,20.7
2019-01-24T11:42:49.866Z,20.69
2019-01-24T11:43:58.909Z,20.69
2019-01-24T11:45:07.918Z,20.7
2019-01-24T11:46:17.467Z,20.69
2019-01-24T11:47:27.035Z,20.72
2019-01-24T11:48:36.557Z,20.7
2019-01-24T11:49:46.383Z,20.7
2019-01-24T11:50:55.860Z,20.67
2019-01-24T11:52:05.141Z,20.73
2019-01-24T11:53:14.417Z,20.72
2019-01-24T11:54:23.660Z,20.67
2019-01-24T11:55:32.934Z,20.69
2019-01-24T11:56:42.542Z,20.72
2019-01-24T11:57:52.042Z,20.77
2019-01-24T11:59:02.088Z,20.84
2019-01-24T12:00:11.345Z,20.76
2019-01-24T12:01:22.480Z,20.85
2019-01-24T12:02:31.481Z,20.87
2019-01-24T12:03:47.131Z,20.92
2019-01-24T12:04:56.126Z,20.97
2019-01-24T12:06:05.422Z,20.92
2019-01-24T12:07:14.214Z,20.94
2019-01-24T12:08:23.989Z,20.95
2019-01-24T12:09:33.615Z,21.01
2019-01-24T12:10:42.910Z,21.1
2019-01-24T12:11:51.990Z,21.06
2019-01-24T12:13:01.003Z,21.04
2019-01-24T12:14:10.001Z,21.09
2019-01-24T12:15:19.530Z,21.09
2019-01-24T12:16:28.539Z,21.07
2019-01-24T12:17:38.380Z,21.04
2019-01-24T12:18:47.999Z,21.16
2019-01-24T12:19:57.250Z,21.09
2019-01-24T12:21:06.545Z,21.03
2019-01-24T12:22:15.593Z,21.06
2019-01-24T12:23:26.175Z,21.09
2019-01-24T12:24:35.770Z,21.12
2019-01-24T12:25:44.514Z,21.07
2019-01-24T12:26:54.014Z,21.1
2019-01-24T12:28:03.358Z,21.06
2019-01-24T12:29:12.381Z,21.1
2019-01-24T12:30:21.884Z,21.09
2019-01-24T12:31:30.925Z,20.97
2019-01-24T12:32:40.463Z,20.99
2019-01-24T12:33:49.497Z,20.98
2019-01-24T12:34:59.246Z,20.95
2019-01-24T12:36:08.541Z,20.99
2019-01-24T12:37:18.099Z,20.95
2019-01-24T12:38:27.080Z,20.94
2019-01-24T12:39:36.690Z,20.95
2019-01-24T12:40:45.500Z,20.92
2019-01-24T12:41:54.736Z,20.92
2019-01-24T12:43:03.892Z,20.91
2019-01-24T12:44:13.157Z,20.88
2019-01-24T12:45:22.703Z,20.88
2019-01-24T12:46:31.803Z,20.92
2019-01-24T12:47:40.879Z,20.77
2019-01-24T12:48:52.048Z,20.74
2019-01-24T12:50:01.038Z,20.74
2019-01-24T12:51:10.362Z,20.8
2019-01-24T12:52:19.866Z,20.79
2019-01-24T12:53:29.246Z,20.77
2019-01-24T12:54:38.772Z,20.77
2019-01-24T12:55:48.115Z,20.84
2019-01-24T12:56:57.460Z,20.7
2019-01-24T12:58:06.764Z,20.69
2019-01-24T12:59:15.813Z,20.73
2019-01-24T13:00:24.820Z,20.72
2019-01-24T13:01:34.137Z,20.69
2019-01-24T13:02:43.411Z,20.72
2019-01-24T13:03:52.969Z,20.72
2019-01-24T13:05:02.270Z,20.69
2019-01-24T13:06:11.354Z,20.7
2019-01-24T13:07:22.889Z,20.67
2019-01-24T13:08:32.694Z,20.69
2019-01-24T13:09:42.582Z,20.67
2019-01-24T13:10:52.102Z,20.69
2019-01-24T13:12:01.414Z,20.72
2019-01-24T13:13:10.990Z,20.69
2019-01-24T13:14:20.887Z,20.7
2019-01-24T13:15:29.909Z,20.7
2019-01-24T13:16:39.170Z,20.82
2019-01-24T13:17:49.000Z,20.84
2019-01-24T13:18:58.594Z,20.79
2019-01-24T13:20:08.149Z,20.87
2019-01-24T13:21:17.666Z,20.84
2019-01-24T13:22:27.367Z,20.85
2019-01-24T13:23:36.692Z,20.94
2019-01-24T13:24:46.594Z,20.91
2019-01-24T13:25:55.889Z,20.97
2019-01-24T13:27:05.761Z,21.03
2019-01-24T13:28:15.128Z,21.04
2019-01-24T13:29:24.471Z,21.06
2019-01-24T13:30:34.048Z,21.03
2019-01-24T13:31:43.404Z,21.12
2019-01-24T13:32:53.259Z,21.06
2019-01-24T13:34:02.802Z,21.13
2019-01-24T13:35:12.336Z,21.13
2019-01-24T13:36:22.114Z,21.16
2019-01-24T13:37:30.882Z,21.14
2019-01-24T13:38:40.413Z,21.13
2019-01-24T13:39:49.431Z,21.17
2019-01-24T13:40:58.212Z,21.17
2019-01-24T13:42:07.543Z,21.14
2019-01-24T13:43:17.202Z,21.16
2019-01-24T13:44:26.223Z,21.1
2019-01-24T13:45:35.753Z,21.13
2019-01-24T13:46:45.417Z,21.12
2019-01-24T13:47:54.715Z,21.13
2019-01-24T13:49:04.349Z,21.12
2019-01-24T13:50:13.638Z,21.07
2019-01-24T13:51:23.195Z,21.19
2019-01-24T13:52:32.588Z,21.04
2019-01-24T13:53:41.718Z,21.1
2019-01-24T13:54:50.767Z,21.13
2019-01-24T13:56:00.060Z,21.04
2019-01-24T13:57:09.364Z,21.01
2019-01-24T13:58:18.743Z,21.06
2019-01-24T13:59:28.064Z,20.97
2019-01-24T14:00:37.340Z,20.99
2019-01-24T14:01:46.975Z,20.95
2019-01-24T14:02:56.251Z,20.98
2019-01-24T14:04:06.028Z,20.94
2019-01-24T14:05:15.588Z,20.98
2019-01-24T14:06:24.832Z,21.01
2019-01-24T14:07:38.017Z,20.99
2019-01-24T14:08:47.523Z,20.95
2019-01-24T14:09:57.109Z,20.95
2019-01-24T14:11:06.877Z,20.95
2019-01-24T14:12:22.798Z,20.85
2019-01-24T14:13:32.541Z,20.87
2019-01-24T14:14:41.633Z,20.88
2019-01-24T14:15:51.479Z,20.85
2019-01-24T14:17:00.853Z,20.76
2019-01-24T14:18:10.337Z,20.77
2019-01-24T14:19:19.583Z,20.84
2019-01-24T14:20:29.391Z,20.76
2019-01-24T14:21:38.356Z,20.66
2019-01-24T14:22:47.204Z,20.66
2019-01-24T14:23:56.772Z,20.74
2019-01-24T14:25:06.018Z,20.69
2019-01-24T14:26:15.605Z,20.7
2019-01-24T14:27:24.469Z,20.73
2019-01-24T14:28:33.592Z,20.72
2019-01-24T14:29:42.884Z,20.7
2019-01-24T14:30:52.214Z,20.69
2019-01-24T14:32:01.564Z,20.67
2019-01-24T14:33:10.585Z,20.67
2019-01-24T14:34:20.492Z,20.66
2019-01-24T14:35:30.122Z,20.67
2019-01-24T14:36:39.427Z,20.66
2019-01-24T14:37:48.955Z,20.66
2019-01-24T14:38:58.007Z,20.7
2019-01-24T14:40:07.540Z,20.8
2019-01-24T14:41:17.092Z,20.82
2019-01-24T14:42:26.380Z,20.79
2019-01-24T14:43:36.188Z,20.77
2019-01-24T14:44:45.761Z,20.87
2019-01-24T14:45:55.048Z,20.87
2019-01-24T14:47:04.544Z,20.94
2019-01-24T14:48:13.822Z,20.95
2019-01-24T14:49:24.376Z,20.99
2019-01-24T14:50:33.703Z,21.03
2019-01-24T14:51:43.068Z,21.09
2019-01-24T14:52:52.439Z,21.06
2019-01-24T14:54:01.239Z,21.1
2019-01-24T14:55:10.732Z,21.14
2019-01-24T14:56:19.757Z,21.13
2019-01-24T14:57:29.021Z,21.1